Foneswood, Virginia
Current Conditions -  °F | °C
As of 9:35 PM on Thursday 20 Nov 2014 (Local Time) from KXSA Reporting Station
Clear Clear  
Wind Chill: 41°   Ceiling: Unl
Heat Index: 41°   Visibility: 10mi
Dew Point: 20°   Wind: 3mph
Humidity: 42%   Direction: 320°NW
Pressure: 30.07"   Gusts: NA
Location:  38.1°N, 76.9°W
Report Text: KXSA 210235Z AUTO 32003KT 10SM CLR 05/M07 A3007 RMK AO2 T00521069
Loading
Personal Weather Stations






























Interactive Weather Map New forecast layout! Learn more

10-Day Weather Forecast

Advertisements
Track Severe Weather on mobile